Tiempo atmosférico en la estación meteorológica de Vilassar De Dalt, Barcelona (60 m.)



Fecha
DESCASC
Temp. máxima en grados centígrados (hora)
DESCASC
Temp. mínima en grados centígrados (hora)
DESCASC
Temp. media en grados centígrados
DESCASC
Racha de viento máxima en m/sg (hora)
DESCASC
Velocidad máxima media en intervalos de 10 minutos(hora)
DESCASC
Precipitaciones diarias en mm
DESCASC
Precipitaciones de 00:00 a 06:00 en mm
DESCASC
Precipitaciones de 06:00 a 12:00 en mm
DESCASC
Precipitaciones de 12:00 a 18:00 en mm
DESCASC
Precipitaciones de 18:00 a 24:00 en mm
DESCASC
25-04-2019 19.2 (15:40) 13.6 (22:20) 16.4 7.78 (08:20) 4.72 (08:20) 0.2 0 0 0.2 0
24-04-2019 19.5 (11:00) 13 (22:10) 16.3 13.61 (15:20) 7.78 (15:20) 0 0 0 0 0
23-04-2019 20.2 (14:30) 14.1 (23:59) 17.2 8.61 (00:30) 4.72 (15:30) 0.4 0.2 0.2 0 0
22-04-2019 18.6 (10:10) 14.9 (00:00) 16.8 15.28 (00:50) 7.22 (13:20) 0 0 0 0 0
21-04-2019 -- (--) -- (--) -- -- (--) -- (--) -- 0 0 0 --
20-04-2019 19 (13:30) 14.4 (00:00) 16.7 15.83 (23:30) 8.33 (23:30) 0 0 0 0 0
19-04-2019 -- (--) -- (--) -- -- (--) -- (--) -- 0 0 0 --
18-04-2019 18.8 (11:40) 12.8 (00:00) 15.8 13.89 (16:10) 8.06 (16:00) 0 0 0 0 0
17-04-2019 18.6 (13:40) 10.3 (00:00) 14.5 5.28 (23:59) 2.5 (10:40) 0 0 0 0 0
16-04-2019 17.5 (13:40) 11.5 (00:00) 14.5 5.28 (16:00) 3.06 (10:50) 0 0 0 0 0
15-04-2019 16.8 (12:40) 10.4 (00:00) 13.6 6.39 (11:30) 3.89 (11:20) 0 0 0 0 0
14-04-2019 16.3 (10:50) 9.9 (00:00) 13.1 7.5 (13:30) 4.44 (13:20) 0 0 0 0 0
13-04-2019 18.8 (09:50) 9.2 (00:00) 14 5 (11:40) 2.78 (12:50) 0 0 0 0 0
12-04-2019 19.9 (11:00) 11.9 (00:00) 15.9 5.83 (07:40) 3.06 (07:40) 0 0 0 0 0
11-04-2019 19.8 (10:50) 10.9 (00:00) 15.3 8.33 (05:50) 4.44 (05:50) 0 0 0 0 0
10-04-2019 21.4 (12:00) 9.4 (00:00) 15.4 8.89 (03:40) 4.17 (15:30) 1.8 0 0 1.8 0
09-04-2019 15.7 (09:00) 9.7 (00:00) 12.7 6.94 (23:30) 3.89 (23:30) 7 0 0 3.8 3.2
08-04-2019 19 (12:00) 9.1 (00:00) 14.1 7.22 (14:40) 4.17 (14:50) 0 0 0 0 0
07-04-2019 17.9 (14:10) 9.6 (00:00) 13.8 8.89 (05:30) 4.44 (06:10) 0 0 0 0 0
06-04-2019 18.3 (16:20) 8.1 (00:00) 13.2 14.72 (11:20) 6.11 (10:30) 4 4 0 0 0
05-04-2019 17.4 (15:30) 8.3 (00:00) 12.8 10 (14:10) 5.56 (14:00) 1.6 0 0 0 1.6
04-04-2019 14.2 (12:30) 5.8 (00:00) 10 10.83 (09:20) 5.28 (09:30) 0 0 0 0 0
03-04-2019 18.1 (14:10) 8.1 (00:00) 13.1 6.39 (18:40) 3.61 (23:50) 6.2 1.2 0 0.4 4.6
02-04-2019 18.8 (12:40) 10.3 (00:00) 14.5 8.61 (15:50) 5 (13:50) 0 0 0 0 0
01-04-2019 19.2 (13:20) 11.1 (00:00) 15.2 4.44 (15:40) 2.5 (15:40) 0 0 0 0 0
31-03-2019 15.8 (14:00) 10.5 (00:00) 13.2 10 (13:50) 6.11 (13:00) 0 0 0 0 0
30-03-2019 16 (14:40) 8.8 (00:00) 12.4 6.67 (16:50) 3.61 (14:00) 0 0 0 0 0
29-03-2019 16.6 (14:00) 8.9 (00:00) 12.8 7.22 (13:00) 4.17 (13:00) 0 0 0 0 0
28-03-2019 18.3 (11:20) 8.7 (00:00) 13.5 6.11 (03:20) 3.06 (10:00) 0 0 0 0 0
27-03-2019 19.4 (11:30) 7.6 (00:00) 13.5 5.56 (12:30) 3.06 (11:50) 0 0 0 0 0

Gráficas

Temp. máximas Temp. mínimas Temp. medias Precipitaciones Rachas de viento máximas Velocidades máximas media en intervalos de 10 minutos

Datos horarios

Fecha y hora oficial Temperatura (ºC) Velocidad del viento (km/h) Dirección del viento Racha (km/h) Dirección de racha Precipitación (mm) Presión (hPa) Tendencia (hPa) Humedad (%)
2019-04-25 23:00:00 15.1 12 Oeste 21 Oeste 0 -- -- 61
2019-04-25 22:00:00 13.8 3 Noroeste 7 Noroeste 0 -- -- 86
2019-04-25 21:00:00 14.6 3 Sudoeste 16 Sur 0 -- -- 86
2019-04-25 20:00:00 15.3 9 Oeste 17 Sudoeste 0 -- -- 82
2019-04-25 19:00:00 17.9 10 Sudoeste 19 Sudoeste 0 -- -- 77
2019-04-25 18:00:00 16.2 6 Sudoeste 15 Sudoeste 0.2 -- -- 80
2019-04-25 17:00:00 17.7 8 Sudoeste 21 Sur 0 -- -- 63
2019-04-25 16:00:00 19.1 6 Sudoeste 27 Norte 0 -- -- 56
2019-04-25 15:00:00 17.2 12 Noroeste 26 Oeste 0 -- -- 61
2019-04-25 14:00:00 18.3 6 Oeste 20 Noroeste 0 -- -- 58
2019-04-25 13:00:00 15.6 9 Noroeste 23 Norte 0 -- -- 70
2019-04-25 12:00:00 16.9 10 Sudoeste 24 Sudoeste 0 -- -- 81
2019-04-25 11:00:00 16.4 12 Sudoeste 26 Sudoeste 0 -- -- 81
2019-04-25 10:00:00 16.2 15 Sudoeste 26 Sudoeste 0 -- -- 80
2019-04-25 09:00:00 15.5 9 Sudoeste 28 Sudoeste 0 -- -- 82
2019-04-25 08:00:00 15.1 9 Sudoeste 23 Sudoeste 0 -- -- 83
2019-04-25 07:00:00 14.4 5 Sudoeste 10 Sur 0 -- -- 87
2019-04-25 06:00:00 14.5 3 Sur 12 Sur 0 -- -- 86
2019-04-25 05:00:00 14.6 8 Sudoeste 19 Sudoeste 0 -- -- 84
2019-04-25 04:00:00 14.6 9 Sudoeste 19 Sudoeste 0 -- -- 85
2019-04-25 03:00:00 14.7 8 Sur 17 Sudoeste 0 -- -- 84
2019-04-25 02:00:00 14.6 4 Sur 13 Sudoeste 0 -- -- 84
2019-04-25 01:00:00 14.8 6 Sudoeste 24 Sudoeste 0 -- -- 81
2019-04-25 00:00:00 14.1 3 Este 6 Sudeste 0 -- -- 78
2019-04-24 23:00:00 13.8 2 Nordeste 6 Oeste 0 -- -- 75
2019-04-24 22:00:00 13.2 3 Oeste 12 Sur 0 -- -- 79
2019-04-24 21:00:00 14.1 8 Sudoeste 25 Sudoeste 0 -- -- 74
2019-04-24 20:00:00 15.3 17 Sudoeste 37 Sudoeste 0 -- -- 67
2019-04-24 19:00:00 16.8 18 Sudoeste 45 Sudoeste 0 -- -- 61
2019-04-24 18:00:00 17.4 20 Sudoeste 41 Sudoeste 0 -- -- 57
2019-04-24 17:00:00 17.3 20 Sudoeste 45 Sur 0 -- -- 58
2019-04-24 16:00:00 17.2 21 Sudoeste 49 Sudoeste 0 -- -- 58
2019-04-24 15:00:00 17.1 25 Sudoeste 41 Sudoeste 0 -- -- 61
2019-04-24 14:00:00 17.5 21 Sudoeste 41 Sudoeste 0 -- -- 63
2019-04-24 13:00:00 17.5 18 Sudoeste 39 Sudoeste 0 -- -- 64
2019-04-24 12:00:00 18.1 13 Sur 27 Sur 0 -- -- 54
2019-04-24 11:00:00 19.5 11 Sudoeste 31 Sudoeste 0 -- -- 43
2019-04-24 10:00:00 18 11 Oeste 28 Noroeste 0 -- -- 44
2019-04-24 09:00:00 16 13 Oeste 25 Oeste 0 -- -- 50
2019-04-24 08:00:00 15.1 6 Sudoeste 22 Sudoeste 0 -- -- 81
2019-04-24 07:00:00 13.8 11 Sudoeste 19 Sudoeste 0 -- -- 85
2019-04-24 06:00:00 14 8 Sudoeste 16 Sur 0 -- -- 89
2019-04-24 05:00:00 14.4 5 Sur 17 Sudoeste 0 -- -- 88
2019-04-24 04:00:00 14.6 10 Sudoeste 22 Sudoeste 0 -- -- 85
2019-04-24 03:00:00 14.3 6 Sudoeste 15 Sudoeste 0 -- -- 87
2019-04-24 02:00:00 14.3 6 Sudoeste 15 Sudoeste 0 -- -- 91
2019-04-24 01:00:00 13.7 5 Sudoeste 16 Sudoeste 0 -- -- 94
2019-04-24 00:00:00 14.1 0 Calma 4 Norte 0 -- -- 92
2019-04-23 23:00:00 14.7 3 Sur 6 Sudoeste 0 -- -- 91
2019-04-23 22:00:00 14.4 3 Este 7 Oeste 0 -- -- 88
2019-04-23 21:00:00 14.5 3 Sudoeste 15 Sudoeste 0 -- -- 87
2019-04-23 20:00:00 15.4 8 Sudoeste 16 Sudoeste 0 -- -- 85
2019-04-23 19:00:00 16.1 6 Sur 15 Sur 0 -- -- 83
2019-04-23 18:00:00 17.2 6 Sudoeste 24 Sur 0 -- -- 77
2019-04-23 17:00:00 18.5 -- -- -- -- 0 -- -- 70
2019-04-23 16:00:00 18.6 15 Sudoeste 28 Sudoeste 0 -- -- 65
2019-04-23 15:00:00 19.9 12 Sudoeste 27 Sudoeste 0 -- -- 61
2019-04-23 14:00:00 18.4 9 Sudoeste 20 Sudoeste 0 -- -- 70
2019-04-23 13:00:00 18 8 Sudoeste 19 Sudoeste 0 -- -- 71
2019-04-23 12:00:00 17.6 7 Sudoeste 18 Sudoeste 0 -- -- 75
2019-04-23 11:00:00 15.9 8 Sudoeste 19 Sudoeste 0.2 -- -- 83
2019-04-23 10:00:00 18.4 6 Sur 10 Sur 0 -- -- 69
2019-04-23 09:00:00 15.6 3 Sudoeste 6 Sudoeste 0 -- -- 82
2019-04-23 08:00:00 14.8 0 Calma 6 Este 0 -- -- 85
2019-04-23 07:00:00 14.6 0 Calma 4 Norte 0 -- -- 85
2019-04-23 06:00:00 14.8 2 Noroeste 10 Oeste 0 -- -- 82
2019-04-23 05:00:00 15.2 7 Norte 15 Noroeste 0 -- -- 78
2019-04-23 04:00:00 14.8 7 Norte 21 Norte 0 -- -- 81
2019-04-23 03:00:00 14.6 9 Norte 26 Nordeste 0.2 -- -- 83
2019-04-23 02:00:00 14.6 12 Norte 27 Norte 0 -- -- 82
2019-04-23 01:00:00 15 13 Norte 31 Norte 0 -- -- 77
2019-04-23 00:00:00 15.3 13 Norte 36 Norte 0 -- -- 74
2019-04-22 23:00:00 15 18 Norte 37 Nordeste 0 -- -- 74
2019-04-22 22:00:00 16.1 15 Nordeste 35 Nordeste 0 -- -- 65
2019-04-22 21:00:00 16.1 14 Nordeste 33 Nordeste 0 -- -- 62
2019-04-22 20:00:00 16.6 15 Nordeste 33 Nordeste 0 -- -- 58
2019-04-22 19:00:00 16.9 14 Nordeste 48 Norte 0 -- -- 58
2019-04-22 18:00:00 17.1 19 Nordeste 39 Este 0 -- -- 60
2019-04-22 17:00:00 17.4 19 Nordeste 44 Nordeste 0 -- -- 60
2019-04-22 16:00:00 18 16 Nordeste 41 Nordeste 0 -- -- 56
2019-04-22 15:00:00 17.5 14 Este 40 Nordeste 0 -- -- 57
2019-04-22 14:00:00 17.1 18 Nordeste 50 Nordeste 0 -- -- 62
2019-04-22 13:00:00 18.4 17 Nordeste 48 Este 0 -- -- 57
2019-04-22 12:00:00 17.7 23 Nordeste 49 Nordeste 0 -- -- 58
2019-04-22 11:00:00 17.6 18 Nordeste 44 Nordeste 0 -- -- 57
2019-04-22 10:00:00 18.2 19 Nordeste 40 Nordeste 0 -- -- 49
2019-04-22 09:00:00 16 15 Nordeste 44 Nordeste 0 -- -- 58
2019-04-22 08:00:00 15.8 18 Nordeste 43 Nordeste 0 -- -- 62
2019-04-22 07:00:00 15.3 20 Nordeste 48 Nordeste 0 -- -- 63
2019-04-22 06:00:00 16.2 20 Nordeste 48 Norte 0 -- -- 53
2019-04-22 05:00:00 15.7 18 Nordeste 38 Norte 0 -- -- 59
2019-04-22 04:00:00 15.9 17 Nordeste 53 Norte 0 -- -- 58
2019-04-22 03:00:00 16.1 16 Nordeste 44 Norte 0 -- -- 56
2019-04-22 02:00:00 16.4 21 Nordeste 51 Nordeste 0 -- -- 53
2019-04-22 01:00:00 16.4 23 Nordeste 55 Nordeste 0 -- -- 53
2019-04-22 00:00:00 -- -- -- -- -- -- -- -- --
2019-04-21 23:00:00 16.5 18 Nordeste 40 Nordeste 0 -- -- 55
2019-04-21 22:00:00 16 16 Nordeste 40 Este 0 -- -- 62
2019-04-21 21:00:00 16 18 Nordeste 35 Nordeste 0 -- -- 62
2019-04-21 20:00:00 17 20 Nordeste 45 Nordeste 0 -- -- 58
2019-04-21 19:00:00 17.9 26 Nordeste 45 Nordeste 0 -- -- 54
2019-04-21 18:00:00 17.4 23 Este 48 Este 0 -- -- 63
2019-04-21 17:00:00 18.9 22 Nordeste 47 Nordeste 0 -- -- 51
2019-04-21 16:00:00 19.5 21 Nordeste 42 Este 0 -- -- 46
2019-04-21 15:00:00 19.3 28 Nordeste 49 Este 0 -- -- 46
2019-04-21 14:00:00 19.4 23 Nordeste 46 Nordeste 0 -- -- 45
2019-04-21 13:00:00 18.3 26 Nordeste 48 Este 0 -- -- 49
2019-04-21 12:00:00 17.7 24 Este 53 Este 0 -- -- 55
2019-04-21 11:00:00 17.2 24 Este 52 Nordeste 0 -- -- 58
2019-04-21 10:00:00 17.2 22 Nordeste 52 Nordeste 0 -- -- 56
2019-04-21 09:00:00 16.7 25 Nordeste 51 Nordeste 0 -- -- 53
2019-04-21 08:00:00 16 20 Nordeste 46 Norte 0 -- -- 52
2019-04-21 07:00:00 15.7 22 Nordeste 50 Norte 0 -- -- 53
2019-04-21 06:00:00 16.1 22 Nordeste 44 Nordeste 0 -- -- 53
2019-04-21 05:00:00 15.9 16 Nordeste 43 Nordeste 0 -- -- 53
2019-04-21 04:00:00 15.9 18 Nordeste 45 Nordeste 0 -- -- 52
2019-04-21 03:00:00 15.9 23 Nordeste 44 Norte 0 -- -- 51
2019-04-21 02:00:00 16 18 Nordeste 49 Nordeste 0 -- -- 51
2019-04-21 01:00:00 15.8 27 Nordeste 53 Nordeste 0 -- -- 52
2019-04-21 00:00:00 15.7 24 Norte 57 Norte 0 -- -- 53
2019-04-20 23:00:00 15.2 23 Norte 50 Norte 0 -- -- 56
2019-04-20 22:00:00 14.6 21 Norte 53 Norte 0 -- -- 60
2019-04-20 21:00:00 15 20 Norte 50 Norte 0 -- -- 59
2019-04-20 20:00:00 15.5 23 Nordeste 49 Nordeste 0 -- -- 57
2019-04-20 19:00:00 16.5 16 Nordeste 40 Este 0 -- -- 53
2019-04-20 18:00:00 17.2 20 Nordeste 41 Este 0 -- -- 48
2019-04-20 17:00:00 17.7 20 Nordeste 46 Nordeste 0 -- -- 44
2019-04-20 16:00:00 18.3 22 Nordeste 41 Nordeste 0 -- -- 43
2019-04-20 15:00:00 18.7 19 Nordeste 41 Este 0 -- -- 44
2019-04-20 14:00:00 18.7 20 Nordeste 37 Este 0 -- -- 42
2019-04-20 13:00:00 18.9 19 Nordeste 41 Este 0 -- -- 44
2019-04-20 12:00:00 18.6 23 Nordeste 43 Nordeste 0 -- -- 43
2019-04-20 11:00:00 18.7 23 Nordeste 47 Nordeste 0 -- -- 41
2019-04-20 10:00:00 17.9 21 Nordeste 41 Nordeste 0 -- -- 42
2019-04-20 09:00:00 17.7 22 Nordeste 45 Nordeste 0 -- -- 45
2019-04-20 08:00:00 17.1 21 Nordeste 52 Nordeste 0 -- -- 45
2019-04-20 07:00:00 17 21 Nordeste 45 Nordeste 0 -- -- 44
2019-04-20 06:00:00 16.8 17 Nordeste 40 Nordeste 0 -- -- 45
2019-04-20 05:00:00 17.2 16 Nordeste 35 Nordeste 0 -- -- 44
2019-04-20 04:00:00 17.2 18 Nordeste 49 Nordeste 0 -- -- 44
2019-04-20 03:00:00 17.3 20 Nordeste 44 Nordeste 0 -- -- 44
2019-04-20 02:00:00 17.2 21 Nordeste 52 Este 0 -- -- 45
2019-04-20 01:00:00 16.9 19 Nordeste 41 Nordeste 0 -- -- 47
2019-04-20 00:00:00 -- -- -- -- -- -- -- -- --
2019-04-19 23:00:00 16.4 16 Nordeste 32 Norte 0 -- -- 53
2019-04-19 22:00:00 16.8 17 Nordeste 33 Nordeste 0 -- -- 50
2019-04-19 21:00:00 16.6 10 Nordeste 32 Este 0 -- -- 56
2019-04-19 20:00:00 17.6 19 Nordeste 40 Este 0 -- -- 54
2019-04-19 19:00:00 17.8 19 Este 40 Este 0 -- -- 60
2019-04-19 18:00:00 17.8 22 Este 47 Este 0 -- -- 64
2019-04-19 17:00:00 18.4 26 Este 57 Este 0 -- -- 56
2019-04-19 16:00:00 17.7 29 Este 55 Este 0 -- -- 60
2019-04-19 15:00:00 19.1 24 Este 45 Este 0 -- -- 57
2019-04-19 14:00:00 19.8 24 Este 50 Este 0 -- -- 52
2019-04-19 13:00:00 18.3 24 Este 48 Este 0 -- -- 55
2019-04-19 12:00:00 18.3 24 Nordeste 49 Nordeste 0 -- -- 53
2019-04-19 11:00:00 17.3 19 Nordeste 42 Nordeste 0 -- -- 59
2019-04-19 10:00:00 16.5 19 Nordeste 35 Nordeste 0 -- -- 64
2019-04-19 09:00:00 15.6 12 Este 32 Este 0 -- -- 66
2019-04-19 08:00:00 15.5 14 Nordeste 31 Nordeste 0 -- -- 64
2019-04-19 07:00:00 15.9 15 Nordeste 44 Nordeste 0 -- -- 59
2019-04-19 06:00:00 16.2 16 Nordeste 37 Norte 0 -- -- 58
2019-04-19 05:00:00 15.8 14 Nordeste 31 Nordeste 0 -- -- 60
2019-04-19 04:00:00 15.8 15 Nordeste 41 Nordeste 0 -- -- 60
2019-04-19 03:00:00 15.8 19 Nordeste 44 Nordeste 0 -- -- 60
2019-04-19 02:00:00 15.9 17 Nordeste 40 Nordeste 0 -- -- 60
2019-04-19 01:00:00 16.1 19 Nordeste 38 Este 0 -- -- 59
2019-04-19 00:00:00 16.4 16 Nordeste 33 Nordeste 0 -- -- 56
2019-04-18 23:00:00 16.1 16 Nordeste 44 Este 0 -- -- 59
2019-04-18 22:00:00 15.7 17 Nordeste 37 Este 0 -- -- 59
2019-04-18 21:00:00 16.2 15 Nordeste 30 Nordeste 0 -- -- 62
2019-04-18 20:00:00 16 15 Este 46 Este 0 -- -- 68
2019-04-18 19:00:00 15.8 23 Este 45 Este 0 -- -- 72
2019-04-18 18:00:00 16.6 23 Este 42 Este 0 -- -- 67
2019-04-18 17:00:00 16.8 23 Este 50 Este 0 -- -- 65
2019-04-18 16:00:00 17 29 Este 46 Este 0 -- -- 69
2019-04-18 15:00:00 17.3 17 Este 36 Este 0 -- -- 71
2019-04-18 14:00:00 17.4 21 Este 43 Este 0 -- -- 70
2019-04-18 13:00:00 17.8 16 Este 32 Este 0 -- -- 53
2019-04-18 12:00:00 17.6 19 Este 35 Este 0 -- -- 53
2019-04-18 11:00:00 17 14 Este 30 Este 0 -- -- 50
2019-04-18 10:00:00 16.2 13 Este 22 Este 0 -- -- 57
2019-04-18 09:00:00 14.6 8 Este 14 Este 0 -- -- 71
2019-04-18 08:00:00 14.1 4 Nordeste 21 Este 0 -- -- 67
2019-04-18 07:00:00 13.4 11 Nordeste 25 Nordeste 0 -- -- 74
2019-04-18 06:00:00 13.2 10 Nordeste 20 Norte 0 -- -- 81
2019-04-18 05:00:00 12.9 5 Nordeste 13 Nordeste 0 -- -- 88
2019-04-18 04:00:00 13.5 6 Nordeste 17 Este 0 -- -- 88
2019-04-18 03:00:00 13.5 9 Nordeste 20 Este 0 -- -- 86
2019-04-18 02:00:00 13.8 8 Este 18 Nordeste 0 -- -- 87
2019-04-18 01:00:00 14.1 8 Este 17 Este 0 -- -- 87
2019-04-18 00:00:00 14.2 9 Este 19 Este 0 -- -- 87
2019-04-17 23:00:00 14.2 7 Este 12 Este 0 -- -- 88
2019-04-17 22:00:00 14.4 5 Este 12 Este 0 -- -- 86
2019-04-17 21:00:00 14.3 6 Este 12 Este 0 -- -- 86
2019-04-17 20:00:00 14.8 6 Este 12 Nordeste 0 -- -- 82
2019-04-17 19:00:00 15.7 6 Este 14 Este 0 -- -- 74
2019-04-17 18:00:00 17.3 5 Sudeste 13 Sudeste 0 -- -- 69
2019-04-17 17:00:00 17.6 4 Sudeste 15 Este 0 -- -- 66
2019-04-17 16:00:00 17.3 4 Sur 13 Sudeste 0 -- -- 66
2019-04-17 15:00:00 17.4 5 Sur 15 Sur 0 -- -- 64
2019-04-17 14:00:00 16.7 8 Sur 16 Sur 0 -- -- 65
2019-04-17 13:00:00 17.3 7 Sudeste 17 Este 0 -- -- 65
2019-04-17 12:00:00 15.4 7 Sudeste 17 Sudeste 0 -- -- 71
2019-04-17 11:00:00 14.6 7 Este 16 Sudeste 0 -- -- 78
2019-04-17 10:00:00 14 5 Este 12 Este 0 -- -- 83
2019-04-17 09:00:00 13.6 6 Este 12 Este 0 -- -- 82
2019-04-17 08:00:00 13.8 3 Oeste 4 Oeste 0 -- -- 90
2019-04-17 07:00:00 10.5 4 Oeste 6 Noroeste 0 -- -- 94
2019-04-17 06:00:00 10.6 0 Calma 3 Noroeste 0 -- -- 94
2019-04-17 05:00:00 10.4 0 Calma 4 Noroeste 0 -- -- 94
2019-04-17 04:00:00 10.9 3 Noroeste 6 Noroeste 0 -- -- 92
2019-04-17 03:00:00 11.2 3 Norte 5 Norte 0 -- -- 91
2019-04-17 02:00:00 11.2 2 Noroeste 5 Noroeste 0 -- -- 90
2019-04-17 01:00:00 11.9 0 Calma 4 Oeste 0 -- -- 89
2019-04-17 00:00:00 12.8 0 Calma 8 Este 0 -- -- 86
2019-04-16 23:00:00 13.4 5 Este 12 Este 0 -- -- 85
2019-04-16 22:00:00 13.7 6 Este 12 Este 0 -- -- 84
2019-04-16 21:00:00 13.8 5 Este 12 Este 0 -- -- 83
2019-04-16 20:00:00 14 6 Este 12 Este 0 -- -- 81
2019-04-16 19:00:00 14.1 7 Sudeste 17 Este 0 -- -- 81
2019-04-16 18:00:00 14.7 9 Sudeste 19 Este 0 -- -- 80
2019-04-16 17:00:00 16.3 8 Sudeste 19 Este 0 -- -- 73
2019-04-16 16:00:00 16.8 10 Sudeste 19 Sudeste 0 -- -- 68
2019-04-16 15:00:00 17.2 8 Este 19 Sudeste 0 -- -- 67
2019-04-16 14:00:00 16.6 10 Sudeste 18 Sudeste 0 -- -- 71
2019-04-16 13:00:00 17.2 9 Sudeste 19 Sudeste 0 -- -- 69
2019-04-16 12:00:00 16.8 8 Sudeste 17 Este 0 -- -- 70
2019-04-16 11:00:00 16.3 10 Sudeste 18 Sudeste 0 -- -- 71
2019-04-16 10:00:00 15.7 7 Este 18 Nordeste 0 -- -- 75
2019-04-16 09:00:00 13.8 4 Nordeste 14 Este 0 -- -- 81
2019-04-16 08:00:00 13.7 4 Nordeste 10 Nordeste 0 -- -- 81
2019-04-16 07:00:00 12 3 Norte 13 Nordeste 0 -- -- 82
2019-04-16 06:00:00 12.3 6 Nordeste 12 Nordeste 0 -- -- 78
2019-04-16 05:00:00 12 4 Nordeste 8 Norte 0 -- -- 69
2019-04-16 04:00:00 11.9 4 Norte 8 Nordeste 0 -- -- 59
2019-04-16 03:00:00 12 4 Norte 14 Norte 0 -- -- 59
2019-04-16 02:00:00 12.3 6 Norte 10 Norte 0 -- -- 69
2019-04-16 01:00:00 12.4 6 Norte 9 Norte 0 -- -- 76
2019-04-16 00:00:00 12 5 Norte 10 Noroeste 0 -- -- 72
2019-04-15 23:00:00 11.7 5 Norte 10 Norte 0 -- -- 64
2019-04-15 22:00:00 12.1 4 Nordeste 9 Este 0 -- -- 61
2019-04-15 21:00:00 12.8 4 Este 9 Este 0 -- -- 56
2019-04-15 20:00:00 13.6 5 Este 12 Sudeste 0 -- -- 51
2019-04-15 19:00:00 14.6 6 Este 12 Este 0 -- -- 60
2019-04-15 18:00:00 15.2 4 Sudeste 13 Sudeste 0 -- -- 59
2019-04-15 17:00:00 15.9 5 Sudeste 14 Sudeste 0 -- -- 57
2019-04-15 16:00:00 16 5 Sudeste 16 Sur 0 -- -- 58
2019-04-15 15:00:00 14.5 9 Sudeste 18 Sudeste 0 -- -- 61
2019-04-15 14:00:00 15.2 8 Sudeste 20 Sudeste 0 -- -- 58
2019-04-15 13:00:00 15.3 10 Sudeste 21 Este 0 -- -- 59
2019-04-15 12:00:00 15.4 8 Sudeste 23 Sudeste 0 -- -- 58
2019-04-15 11:00:00 14.7 10 Este 22 Este 0 -- -- 58
2019-04-15 10:00:00 14.6 9 Este 19 Este 0 -- -- 58
2019-04-15 09:00:00 13.6 6 Este 12 Nordeste 0 -- -- 56
2019-04-15 08:00:00 11.8 2 Norte 8 Norte 0 -- -- 66
2019-04-15 07:00:00 10.7 0 Calma 9 Nordeste 0 -- -- 69
2019-04-15 06:00:00 10.7 3 Norte 8 Nordeste 0 -- -- 67
2019-04-15 05:00:00 11.1 2 Norte 6 Nordeste 0 -- -- 65
2019-04-15 04:00:00 10.6 2 Norte 7 Noroeste 0 -- -- 67
2019-04-15 03:00:00 10.5 3 Noroeste 6 Noroeste 0 -- -- 78
2019-04-15 02:00:00 11.3 6 Nordeste 14 Este 0 -- -- 81
2019-04-15 01:00:00 11.2 3 Norte 5 Noroeste 0 -- -- 90
2019-04-15 00:00:00 11.4 2 Noroeste 5 Norte 0 -- -- 88
2019-04-14 23:00:00 11.8 0 Calma 5 Nordeste 0 -- -- 85
2019-04-14 22:00:00 11.9 0 Calma 5 Este 0 -- -- 80
2019-04-14 21:00:00 12.6 0 Calma 9 Este 0 -- -- 78
2019-04-14 20:00:00 13.4 5 Sudeste 10 Este 0 -- -- 75
2019-04-14 19:00:00 15 6 Este 14 Este 0 -- -- 69
2019-04-14 18:00:00 15.1 8 Sudeste 19 Este 0 -- -- 68
2019-04-14 17:00:00 15 12 Este 21 Sudeste 0 -- -- 68
2019-04-14 16:00:00 15.2 13 Este 22 Este 0 -- -- 68
2019-04-14 15:00:00 15.4 13 Sudeste 23 Este 0 -- -- 68
2019-04-14 14:00:00 15.2 16 Este 27 Este 0 -- -- 70
2019-04-14 13:00:00 15.3 13 Este 26 Este 0 -- -- 73
2019-04-14 12:00:00 15.8 15 Este 22 Este 0 -- -- 75
2019-04-14 11:00:00 16.3 10 Este 18 Este 0 -- -- 69
2019-04-14 10:00:00 14.6 7 Este 11 Nordeste 0 -- -- 67
2019-04-14 09:00:00 12.9 0 Calma 6 Este 0 -- -- 79
2019-04-14 08:00:00 13.4 3 Nordeste 6 Nordeste 0 -- -- 71
2019-04-14 07:00:00 10.2 2 Norte 7 Noroeste 0 -- -- 75
2019-04-14 06:00:00 10.2 4 Norte 7 Noroeste 0 -- -- 79
2019-04-14 05:00:00 10.3 5 Noroeste 8 Noroeste 0 -- -- 87
2019-04-14 04:00:00 10.5 4 Noroeste 6 Noroeste 0 -- -- 88
2019-04-14 03:00:00 10.9 5 Noroeste 7 Noroeste 0 -- -- 86
2019-04-14 02:00:00 11.1 4 Noroeste 6 Noroeste 0 -- -- 84
2019-04-14 01:00:00 11.3 3 Norte 5 Noroeste 0 -- -- 81
2019-04-14 00:00:00 11.7 3 Noroeste 5 Noroeste 0 -- -- 81
2019-04-13 23:00:00 12.3 3 Noroeste 6 Noroeste 0 -- -- 76
2019-04-13 22:00:00 12.7 3 Noroeste 5 Noroeste 0 -- -- 71
2019-04-13 21:00:00 13 0 Calma 8 Sudoeste 0 -- -- 75
2019-04-13 20:00:00 14.8 4 Sudoeste 9 Sur 0 -- -- 67
2019-04-13 19:00:00 17.3 5 Sur 11 Sur 0 -- -- 62
2019-04-13 18:00:00 17.6 5 Sur 16 Sur 0 -- -- 64
2019-04-13 17:00:00 17.4 8 Sur 18 Sur 0 -- -- 64
2019-04-13 16:00:00 17.7 8 Sur 15 Sur 0 -- -- 60
2019-04-13 15:00:00 16.7 7 Sudeste 18 Sudeste 0 -- -- 67
2019-04-13 14:00:00 17.4 7 Sudeste 16 Sudeste 0 -- -- 66
2019-04-13 13:00:00 16.2 9 Sudeste 18 Este 0 -- -- 73
2019-04-13 12:00:00 16.9 7 Sudeste 18 Sudeste 0 -- -- 69
2019-04-13 11:00:00 17.3 5 Sudeste 13 Este 0 -- -- 62
2019-04-13 10:00:00 18.4 5 Sudoeste 8 Sur 0 -- -- 56
2019-04-13 09:00:00 17.8 2 Sur 5 Sur 0 -- -- 59
2019-04-13 08:00:00 11.9 2 Noroeste 6 Noroeste 0 -- -- 83
2019-04-13 07:00:00 9.7 3 Noroeste 6 Noroeste 0 -- -- 88
2019-04-13 06:00:00 9.4 0 Calma 5 Noroeste 0 -- -- 87
2019-04-13 05:00:00 10.5 2 Norte 9 Noroeste 0 -- -- 86
2019-04-13 04:00:00 11 5 Norte 7 Noroeste 0 -- -- 87
2019-04-13 03:00:00 11.9 4 Noroeste 10 Noroeste 0 -- -- 87
2019-04-13 02:00:00 11.7 5 Noroeste 9 Noroeste 0 -- -- 87
2019-04-13 01:00:00 11.4 4 Noroeste 6 Norte 0 -- -- 84
2019-04-13 00:00:00 11.9 4 Noroeste 5 Norte 0 -- -- 81
2019-04-12 23:00:00 12.2 4 Noroeste 10 Sudoeste 0 -- -- 79
2019-04-12 22:00:00 13.4 5 Sudoeste 16 Sur 0 -- -- 77
2019-04-12 21:00:00 14.2 6 Sur 13 Sur 0 -- -- 73
2019-04-12 20:00:00 14.5 5 Sur 14 Sur 0 -- -- 70
2019-04-12 19:00:00 15.7 4 Sudeste 15 Sudeste 0 -- -- 68
2019-04-12 18:00:00 15.1 7 Sudeste 18 Sudeste 0 -- -- 69
2019-04-12 17:00:00 16.7 5 Sudeste 16 Sudeste 0 -- -- 64
2019-04-12 16:00:00 17.8 8 Sur 19 Sur 0 -- -- 61
2019-04-12 15:00:00 17.5 8 Sur 19 Este 0 -- -- 61
2019-04-12 14:00:00 16.9 8 Sudeste 21 Sudeste 0 -- -- 65
2019-04-12 13:00:00 17.1 7 Sudeste 17 Sudeste 0 -- -- 59
2019-04-12 12:00:00 17.6 8 Sudeste 17 Sur 0 -- -- 54
2019-04-12 11:00:00 19.9 4 Sur 13 Sudoeste 0 -- -- 48
2019-04-12 10:00:00 18.3 4 Sudeste 9 Este 0 -- -- 47
2019-04-12 09:00:00 18.3 3 Sudoeste 16 Noroeste 0 -- -- 45
2019-04-12 08:00:00 13.2 10 Norte 21 Norte 0 -- -- 55
2019-04-12 07:00:00 12.5 4 Norte 14 Norte 0 -- -- 58
2019-04-12 06:00:00 12.8 7 Norte 10 Norte 0 -- -- 57
2019-04-12 05:00:00 13.4 2 Este 10 Este 0 -- -- 56
2019-04-12 04:00:00 13.9 5 Este 14 Noroeste 0 -- -- 53
2019-04-12 03:00:00 15 6 Noroeste 17 Noroeste 0 -- -- 45
2019-04-12 02:00:00 14.7 5 Noroeste 12 Noroeste 0 -- -- 49
2019-04-12 01:00:00 13.4 4 Noroeste 9 Noroeste 0 -- -- 57
2019-04-12 00:00:00 13.3 0 Calma 12 Sudoeste 0 -- -- 73
2019-04-11 23:00:00 13.9 4 Noroeste 7 Norte 0 -- -- 56
2019-04-11 22:00:00 13.7 0 Calma 9 Este 0 -- -- 77
2019-04-11 21:00:00 13.8 2 Este 9 Este 0 -- -- 76
2019-04-11 20:00:00 14.3 6 Este 12 Este 0 -- -- 71
2019-04-11 19:00:00 14.6 9 Este 15 Este 0 -- -- 72
2019-04-11 18:00:00 15.3 7 Este 18 Este 0 -- -- 68
2019-04-11 17:00:00 16.4 4 Este 10 Este 0 -- -- 54
2019-04-11 16:00:00 16.7 7 Sudeste 16 Este 0 -- -- 55
2019-04-11 15:00:00 17.5 5 Sudeste 14 Sudeste 0 -- -- 52
2019-04-11 14:00:00 17.9 6 Sudeste 15 Sudeste 0 -- -- 55
2019-04-11 13:00:00 17 8 Sudeste 17 Sudeste 0 -- -- 62
2019-04-11 12:00:00 17.4 9 Sudeste 18 Sudeste 0 -- -- 54
2019-04-11 11:00:00 19.6 4 Sur 12 Sur 0 -- -- 42
2019-04-11 10:00:00 18.7 5 Sur 15 Sudoeste 0 -- -- 43
2019-04-11 09:00:00 17.2 3 Este 20 Oeste 0 -- -- 46
2019-04-11 08:00:00 12.7 5 Sur 27 Noroeste 0 -- -- 55
2019-04-11 07:00:00 13.2 12 Norte 24 Noroeste 0 -- -- 50
2019-04-11 06:00:00 12.8 14 Norte 30 Noroeste 0 -- -- 56
2019-04-11 05:00:00 12.2 3 Sudoeste 9 Noroeste 0 -- -- 59
2019-04-11 04:00:00 13.2 2 Sudoeste 10 Oeste 0 -- -- 59
2019-04-11 03:00:00 12.2 2 Este 11 Oeste 0 -- -- 66
2019-04-11 02:00:00 13.3 6 Oeste 15 Oeste 0 -- -- 59
2019-04-11 01:00:00 11.8 0 Calma 14 Norte 0 -- -- 72
2019-04-11 00:00:00 10.9 4 Oeste 8 Noroeste 0 -- -- 74
2019-04-10 23:00:00 11.8 5 Noroeste 19 Este 0 -- -- 76
2019-04-10 22:00:00 12.7 6 Nordeste 13 Norte 0 -- -- 70
2019-04-10 21:00:00 12.3 4 Este 13 Oeste 0 -- -- 71
2019-04-10 20:00:00 12.9 9 Noroeste 15 Noroeste 0 -- -- 65
2019-04-10 19:00:00 12.5 5 Oeste 11 Noroeste 0 -- -- 77
2019-04-10 18:00:00 12.4 7 Noroeste 23 Sudoeste 0.2 -- -- 79
2019-04-10 17:00:00 12.4 2 Oeste 14 Noroeste 1.4 -- -- 77
2019-04-10 16:00:00 13.6 8 Este 28 Nordeste 0.2 -- -- 68
2019-04-10 15:00:00 16 12 Sudoeste 21 Sudoeste 0 -- -- 67
2019-04-10 14:00:00 18.7 10 Sudoeste 22 Sur 0 -- -- 56
2019-04-10 13:00:00 20.8 11 Sur 20 Sudoeste 0 -- -- 37
2019-04-10 12:00:00 21.4 5 Sur 17 Noroeste 0 -- -- 42
2019-04-10 11:00:00 18.3 8 Noroeste 21 Noroeste 0 -- -- 47
2019-04-10 10:00:00 18.9 5 Sur 12 Sur 0 -- -- 52
2019-04-10 09:00:00 15.1 0 Calma 7 Noroeste 0 -- -- 62
2019-04-10 08:00:00 11 2 Nordeste 10 Oeste 0 -- -- 69
2019-04-10 07:00:00 10.9 5 Noroeste 13 Noroeste 0 -- -- 67
2019-04-10 06:00:00 9.8 4 Este 10 Noroeste 0 -- -- 73
2019-04-10 05:00:00 11.7 4 Oeste 27 Noroeste 0 -- -- 64
2019-04-10 04:00:00 12.3 12 Noroeste 32 Noroeste 0 -- -- 63
2019-04-10 03:00:00 11.6 7 Noroeste 24 Noroeste 0 -- -- 68
2019-04-10 02:00:00 10.7 3 Oeste 16 Noroeste 0 -- -- 71
2019-04-10 01:00:00 11.2 4 Noroeste 17 Noroeste 0 -- -- 70
2019-04-10 00:00:00 11.5 2 Sudoeste 25 Noroeste 0 -- -- 71
2019-04-09 23:00:00 10.2 3 Nordeste 17 Nordeste 0 -- -- 84
2019-04-09 22:00:00 9.7 0 Calma 6 Oeste 0 -- -- 91
2019-04-09 21:00:00 10.2 4 Norte 10 Noroeste 0 -- -- 89
2019-04-09 20:00:00 10.3 5 Oeste 20 Oeste 0.4 -- -- 90
2019-04-09 19:00:00 10.7 2 Nordeste 19 Noroeste 2.8 -- -- 87
2019-04-09 18:00:00 14 4 Norte 18 Noroeste 0 -- -- 77
2019-04-09 17:00:00 13.7 4 Sudeste 10 Sur 0 -- -- 83
2019-04-09 16:00:00 13 3 Sudeste 11 Sudeste 0 -- -- 82
2019-04-09 15:00:00 12.9 6 Sudeste 12 Sudeste 3.6 -- -- 90
2019-04-09 14:00:00 12.4 9 Este 22 Este 0.2 -- -- 84
2019-04-09 13:00:00 14.8 10 Este 21 Este 0 -- -- 70
2019-04-09 12:00:00 14.1 9 Este 21 Sudeste 0 -- -- 76
2019-04-09 11:00:00 15.1 11 Este 21 Sudeste 0 -- -- 68
2019-04-09 10:00:00 14.8 9 Este 17 Este 0 -- -- 70
2019-04-09 09:00:00 15.7 2 Nordeste 7 Nordeste 0 -- -- 70
2019-04-09 08:00:00 12.4 2 Norte 10 Noroeste 0 -- -- 81
2019-04-09 07:00:00 11.9 0 Calma 9 Noroeste 0 -- -- 88
2019-04-09 06:00:00 11.8 0 Calma 6 Noroeste 0 -- -- 86
2019-04-09 05:00:00 12 3 Noroeste 9 Norte 0 -- -- 84
2019-04-09 04:00:00 11.7 4 Norte 7 Norte 0 -- -- 86
2019-04-09 03:00:00 12 2 Norte 14 Norte 0 -- -- 87
2019-04-09 02:00:00 12.5 5 Norte 10 Norte 0 -- -- 86
2019-04-09 01:00:00 12 2 Norte 6 Este 0 -- -- 86
2019-04-09 00:00:00 11.9 3 Norte 9 Norte 0 -- -- 86
2019-04-08 23:00:00 12.7 5 Norte 9 Noroeste 0 -- -- 84
2019-04-08 22:00:00 13.1 5 Norte 12 Noroeste 0 -- -- 82
2019-04-08 21:00:00 13.5 5 Norte 11 Este 0 -- -- 80
2019-04-08 20:00:00 14.4 7 Este 13 Sudoeste 0 -- -- 78
2019-04-08 19:00:00 17.1 8 Sur 22 Sudoeste 0 -- -- 67
2019-04-08 18:00:00 17.5 11 Sudoeste 24 Sur 0 -- -- 68
2019-04-08 17:00:00 17.2 12 Sudoeste 22 Sudoeste 0 -- -- 67
2019-04-08 16:00:00 16.7 10 Sudoeste 24 Sudoeste 0 -- -- 65
2019-04-08 15:00:00 17.4 12 Sudoeste 26 Sudoeste 0 -- -- 60
2019-04-08 14:00:00 16.8 12 Sudoeste 25 Sudoeste 0 -- -- 60
2019-04-08 13:00:00 18.3 12 Sudoeste 24 Sudoeste 0 -- -- 63
2019-04-08 12:00:00 19 9 Sudoeste 20 Sudoeste 0 -- -- 48
2019-04-08 11:00:00 16.1 9 Sudeste 18 Este 0 -- -- 54
2019-04-08 10:00:00 15 4 Este 15 Noroeste 0 -- -- 55
2019-04-08 09:00:00 12.4 3 Este 6 Este 0 -- -- 69
2019-04-08 08:00:00 9.8 0 Calma 7 Nordeste 0 -- -- 78
2019-04-08 07:00:00 9.7 2 Norte 8 Este 0 -- -- 78
2019-04-08 06:00:00 9.7 2 Nordeste 4 Oeste 0 -- -- 81
2019-04-08 05:00:00 10 0 Calma 11 Oeste 0 -- -- 82
2019-04-08 04:00:00 9.7 0 Calma 8 Oeste 0 -- -- 82
2019-04-08 03:00:00 9.2 5 Nordeste 11 Oeste 0 -- -- 81
2019-04-08 02:00:00 9.3 0 Calma 5 Nordeste 0 -- -- 79
2019-04-08 01:00:00 10 3 Este 18 Oeste 0 -- -- 76
2019-04-08 00:00:00 10.2 0 Calma 10 Oeste 0 -- -- 73
2019-04-07 23:00:00 10.7 3 Oeste 10 Oeste 0 -- -- 70
2019-04-07 22:00:00 10 5 Norte 9 Norte 0 -- -- 80
2019-04-07 21:00:00 10.9 2 Noroeste 9 Noroeste 0 -- -- 76
2019-04-07 20:00:00 11.8 2 Sudoeste 15 Sudoeste 0 -- -- 70
2019-04-07 19:00:00 14.4 6 Sudoeste 11 Sudoeste 0 -- -- 63
2019-04-07 18:00:00 12 3 Este 25 Este 0 -- -- 71
2019-04-07 17:00:00 13.2 4 Este 15 Nordeste 0 -- -- 68
2019-04-07 16:00:00 13.1 9 Nordeste 20 Nordeste 0 -- -- 68
2019-04-07 15:00:00 14 5 Sudoeste 21 Sur 0 -- -- 65
2019-04-07 14:00:00 17.4 9 Sur 17 Sudoeste 0 -- -- 51
2019-04-07 13:00:00 15.8 8 Sudeste 22 Sudeste 0 -- -- 52
2019-04-07 12:00:00 15.6 8 Sudeste 20 Sudeste 0 -- -- 53
2019-04-07 11:00:00 14.9 10 Este 19 Norte 0 -- -- 55
2019-04-07 10:00:00 14.4 10 Noroeste 26 Noroeste 0 -- -- 51
2019-04-07 09:00:00 12.4 14 Noroeste 30 Noroeste 0 -- -- 56
2019-04-07 08:00:00 9.8 3 Este 29 Noroeste 0 -- -- 63
2019-04-07 07:00:00 10 12 Norte 30 Noroeste 0 -- -- 61
2019-04-07 06:00:00 10.3 15 Norte 32 Noroeste 0 -- -- 60
2019-04-07 05:00:00 10.8 12 Noroeste 29 Noroeste 0 -- -- 58
2019-04-07 04:00:00 10.6 14 Noroeste 28 Noroeste 0 -- -- 60
2019-04-07 03:00:00 10.9 10 Noroeste 24 Noroeste 0 -- -- 60
2019-04-07 02:00:00 10.3 5 Noroeste 9 Noroeste 0 -- -- 75
2019-04-07 01:00:00 10.8 4 Norte 9 Noroeste 0 -- -- 79
2019-04-07 00:00:00 10.3 5 Norte 9 Norte 0 -- -- 77
2019-04-06 23:00:00 10.6 5 Norte 7 Noroeste 0 -- -- 69
2019-04-06 22:00:00 10.8 4 Oeste 6 Oeste 0 -- -- 62
2019-04-06 21:00:00 12.2 6 Oeste 32 Sudoeste 0 -- -- 61
2019-04-06 20:00:00 13.6 17 Sudoeste 32 Sudoeste 0 -- -- 63
2019-04-06 19:00:00 14.3 14 Sudoeste 34 Sudoeste 0 -- -- 59
2019-04-06 18:00:00 14.6 17 Sudoeste 37 Sudoeste 0 -- -- 53
2019-04-06 17:00:00 15.6 18 Sudoeste 34 Oeste 0 -- -- 56
2019-04-06 16:00:00 17.2 15 Oeste 33 Noroeste 0 -- -- 39
2019-04-06 15:00:00 16.7 14 Oeste 37 Sudoeste 0 -- -- 41
2019-04-06 14:00:00 16.4 10 Oeste 31 Oeste 0 -- -- 45
2019-04-06 13:00:00 16.3 17 Oeste 41 Oeste 0 -- -- 47
2019-04-06 12:00:00 14.4 19 Oeste 53 Noroeste 0 -- -- 53
2019-04-06 11:00:00 13.4 20 Oeste 37 Noroeste 0 -- -- 59
2019-04-06 10:00:00 12.1 16 Oeste 35 Oeste 0 -- -- 65
2019-04-06 09:00:00 11.2 12 Oeste 32 Noroeste 0 -- -- 70
2019-04-06 08:00:00 9.4 2 Oeste 28 Noroeste 0 -- -- 83
2019-04-06 07:00:00 8.8 14 Noroeste 31 Noroeste 0 -- -- 83
2019-04-06 06:00:00 9.4 13 Noroeste 27 Oeste 1 -- -- 89
2019-04-06 05:00:00 9.8 10 Oeste 18 Oeste 2.2 -- -- 89
2019-04-06 04:00:00 10.2 4 Oeste 10 Sudoeste 0 -- -- 90
2019-04-06 03:00:00 9.9 2 Oeste 6 Oeste 0 -- -- 91
2019-04-06 02:00:00 10.7 7 Oeste 15 Sudoeste 0.6 -- -- 90
2019-04-06 01:00:00 11.2 4 Nordeste 15 Sudoeste 0.2 -- -- 90
2019-04-06 00:00:00 12.9 11 Sur 26 Sudoeste 0.2 -- -- 85
2019-04-05 23:00:00 11.8 5 Este 13 Este 0 -- -- 86
2019-04-05 22:00:00 11.4 4 Nordeste 18 Sur 1.4 -- -- 89
2019-04-05 21:00:00 13.7 7 Sudeste 17 Sur 0 -- -- 77
2019-04-05 20:00:00 14.3 6 Sur 20 Sur 0 -- -- 82
2019-04-05 19:00:00 14.6 9 Sur 26 Sudoeste 0 -- -- 79
2019-04-05 18:00:00 15.2 12 Sur 28 Sudoeste 0 -- -- 75
2019-04-05 17:00:00 15.8 14 Sudoeste 32 Sur 0 -- -- 72
2019-04-05 16:00:00 17.1 18 Sur 36 Sudoeste 0 -- -- 66
2019-04-05 15:00:00 17.1 17 Sudoeste 36 Sudoeste 0 -- -- 67
2019-04-05 14:00:00 17.2 20 Sudoeste 36 Sudoeste 0 -- -- 66
2019-04-05 13:00:00 14.3 7 Sudoeste 15 Sudoeste 0 -- -- 71
2019-04-05 12:00:00 14.7 6 Sudoeste 15 Sudoeste 0 -- -- 63
2019-04-05 11:00:00 14.5 6 Sudoeste 17 Sudoeste 0 -- -- 64
2019-04-05 10:00:00 13.6 5 Sudoeste 15 Sudoeste 0 -- -- 66
2019-04-05 09:00:00 15.1 5 Sudoeste 15 Oeste 0 -- -- 61
2019-04-05 08:00:00 11.7 5 Oeste 13 Oeste 0 -- -- 71
2019-04-05 07:00:00 10 6 Oeste 16 Oeste 0 -- -- 72
2019-04-05 06:00:00 10.3 6 Noroeste 14 Oeste 0 -- -- 68
2019-04-05 05:00:00 9 5 Oeste 10 Oeste 0 -- -- 71
2019-04-05 04:00:00 9.4 6 Noroeste 13 Oeste 0 -- -- 65
2019-04-05 03:00:00 8.9 4 Noroeste 8 Oeste 0 -- -- 66
2019-04-05 02:00:00 8.5 4 Oeste 10 Norte 0 -- -- 70
2019-04-05 01:00:00 8.5 5 Norte 10 Norte 0 -- -- 71
2019-04-05 00:00:00 8.5 5 Oeste 12 Noroeste 0 -- -- 75
2019-04-04 23:00:00 9.6 9 Norte 14 Norte 0 -- -- 68
2019-04-04 22:00:00 9.3 6 Norte 10 Norte 0 -- -- 67
2019-04-04 21:00:00 9.8 4 Norte 8 Norte 0 -- -- 64
2019-04-04 20:00:00 10.7 6 Este 15 Sudeste 0 -- -- 61
2019-04-04 19:00:00 12.3 9 Este 19 Sudeste 0 -- -- 54
2019-04-04 18:00:00 13.6 7 Sudeste 18 Sudeste 0 -- -- 51
2019-04-04 17:00:00 13.6 5 Sudeste 17 Sudeste 0 -- -- 51
2019-04-04 16:00:00 13 8 Sudeste 23 Sudeste 0 -- -- 53
2019-04-04 15:00:00 12.4 9 Sudeste 23 Este 0 -- -- 52
2019-04-04 14:00:00 12.2 12 Este 25 Este 0 -- -- 50
2019-04-04 13:00:00 14 8 Sudeste 24 Oeste 0 -- -- 46
2019-04-04 12:00:00 13.2 8 Norte 24 Noroeste 0 -- -- 48
2019-04-04 11:00:00 10.9 10 Noroeste 31 Noroeste 0 -- -- 53
2019-04-04 10:00:00 8.8 16 Norte 39 Noroeste 0 -- -- 59
2019-04-04 09:00:00 7.2 18 Norte 36 Noroeste 0 -- -- 62
2019-04-04 08:00:00 6.6 14 Noroeste 30 Noroeste 0 -- -- 63
2019-04-04 07:00:00 6.2 9 Noroeste 23 Noroeste 0 -- -- 71
2019-04-04 06:00:00 5.9 3 Nordeste 11 Oeste 0 -- -- 87
2019-04-04 05:00:00 6 5 Noroeste 8 Noroeste 0 -- -- 91
2019-04-04 04:00:00 6.2 4 Noroeste 7 Noroeste 0 -- -- 90
2019-04-04 03:00:00 7 3 Norte 9 Nordeste 0 -- -- 88
2019-04-04 02:00:00 7.5 3 Norte 17 Este 0 -- -- 85
2019-04-04 01:00:00 7.8 3 Este 18 Este 0 -- -- 89
2019-04-04 00:00:00 8.1 8 Este 21 Este 0.2 -- -- 91
2019-04-03 23:00:00 9.3 5 Este 12 Este 0.4 -- -- 90
2019-04-03 22:00:00 10 0 Calma 9 Sudoeste 1.6 -- -- 90
2019-04-03 21:00:00 10.2 4 Sudoeste 9 Oeste 1.6 -- -- 89
2019-04-03 20:00:00 11.4 2 Nordeste 19 Este 0.6 -- -- 88
2019-04-03 19:00:00 12.2 8 Norte 23 Noroeste 0.2 -- -- 73
2019-04-03 18:00:00 14.3 4 Sudoeste 9 Sur 0 -- -- 86
2019-04-03 17:00:00 14.8 4 Sur 12 Sur 0 -- -- 84
2019-04-03 16:00:00 16.9 3 Sudeste 13 Sudoeste 0.4 -- -- 77
2019-04-03 15:00:00 15.6 6 Sudoeste 18 Sudoeste 0 -- -- 79
2019-04-03 14:00:00 17.9 10 Sudoeste 20 Sudoeste 0 -- -- 72
2019-04-03 13:00:00 15.8 11 Sudoeste 22 Sudoeste 0 -- -- 77
2019-04-03 12:00:00 17.4 13 Sudoeste 23 Sudoeste 0 -- -- 73
2019-04-03 11:00:00 16.6 7 Sudoeste 14 Sudoeste 0 -- -- 79
2019-04-03 10:00:00 15.6 6 Sudoeste 10 Sudoeste 0 -- -- 84
2019-04-03 09:00:00 13.4 0 Calma 4 Oeste 0 -- -- 91
2019-04-03 08:00:00 13 2 Noroeste 4 Noroeste 0 -- -- 91
2019-04-03 07:00:00 12.5 0 Calma 4 Nordeste 0 -- -- 91
2019-04-03 06:00:00 12.4 0 Calma 4 Este 0 -- -- 91
2019-04-03 05:00:00 12.4 0 Calma 4 Noroeste 0 -- -- 92
2019-04-03 04:00:00 12.4 0 Calma 7 Norte 0 -- -- 92
2019-04-03 03:00:00 11.9 3 Norte 6 Norte 0 -- -- 92
2019-04-03 02:00:00 12 3 Norte 5 Norte 0.2 -- -- 92
2019-04-03 01:00:00 12.6 4 Nordeste 12 Este 1 -- -- 89
2019-04-03 00:00:00 13.6 3 Este 13 Este 0 -- -- 77
2019-04-02 23:00:00 13.7 6 Este 16 Este 0 -- -- 77
2019-04-02 22:00:00 13.6 9 Este 18 Este 0 -- -- 77
2019-04-02 21:00:00 13.9 9 Este 19 Nordeste 0 -- -- 85
2019-04-02 20:00:00 14.4 5 Sudeste 15 Sudoeste 0 -- -- 86
2019-04-02 19:00:00 14.8 8 Sur 25 Sudoeste 0 -- -- 82
2019-04-02 18:00:00 16.1 10 Sudoeste 29 Sudoeste 0 -- -- 75
2019-04-02 17:00:00 16.8 15 Sudoeste 27 Sudoeste 0 -- -- 75
2019-04-02 16:00:00 16.1 16 Sudoeste 31 Sudoeste 0 -- -- 77
2019-04-02 15:00:00 17.2 14 Sudoeste 29 Sudoeste 0 -- -- 72
2019-04-02 14:00:00 17.5 16 Sudoeste 29 Sudoeste 0 -- -- 71
2019-04-02 13:00:00 18.1 17 Sudoeste 29 Sudoeste 0 -- -- 69
2019-04-02 12:00:00 17.7 14 Sudoeste 24 Sudoeste 0 -- -- 69
2019-04-02 11:00:00 17 11 Sudoeste 18 Sur 0 -- -- 50
2019-04-02 10:00:00 15.7 6 Sudoeste 12 Sudoeste 0 -- -- 52
2019-04-02 09:00:00 14.3 5 Sudoeste 9 Sudoeste 0 -- -- 60
2019-04-02 08:00:00 12.7 4 Oeste 8 Sudoeste 0 -- -- 63
2019-04-02 07:00:00 12 4 Sudoeste 9 Sur 0 -- -- 67
2019-04-02 06:00:00 11.3 2 Oeste 5 Norte 0 -- -- 68
2019-04-02 05:00:00 10.8 0 Calma 8 Oeste 0 -- -- 71
2019-04-02 04:00:00 11.1 2 Nordeste 8 Norte 0 -- -- 71
2019-04-02 03:00:00 10.6 3 Oeste 8 Noroeste 0 -- -- 70
2019-04-02 02:00:00 11 4 Noroeste 7 Noroeste 0 -- -- 69
2019-04-02 01:00:00 10.4 0 Calma 8 Oeste 0 -- -- 74
2019-04-02 00:00:00 11.5 5 Oeste 8 Oeste 0 -- -- 81
2019-04-01 23:00:00 11.6 3 Noroeste 6 Noroeste 0 -- -- 79
2019-04-01 22:00:00 11.8 4 Noroeste 6 Noroeste 0 -- -- 73
2019-04-01 21:00:00 12.4 3 Noroeste 9 Sudoeste 0 -- -- 71
2019-04-01 20:00:00 14 4 Sudoeste 11 Sur 0 -- -- 67
2019-04-01 19:00:00 16.2 5 Sur 13 Sudeste 0 -- -- 61
2019-04-01 18:00:00 16.3 5 Sur 13 Este 0 -- -- 64
2019-04-01 17:00:00 17.4 5 Sudeste 14 Sudeste 0 -- -- 51
2019-04-01 16:00:00 17.1 7 Sur 16 Sur 0 -- -- 57
2019-04-01 15:00:00 16.8 8 Sudeste 14 Sudeste 0 -- -- 48
2019-04-01 14:00:00 18.1 7 Sudeste 14 Sudeste 0 -- -- 41
2019-04-01 13:00:00 18.6 5 Sur 12 Sur 0 -- -- 37
2019-04-01 12:00:00 18.1 5 Sudeste 14 Este 0 -- -- 33
2019-04-01 11:00:00 18.5 5 Sudeste 13 Este 0 -- -- 40
2019-04-01 10:00:00 15.8 6 Este 10 Este 0 -- -- 56
2019-04-01 09:00:00 14.1 0 Calma 4 Norte 0 -- -- 49
2019-04-01 08:00:00 11.7 3 Norte 6 Noroeste 0 -- -- 54
2019-04-01 07:00:00 11.6 3 Norte 10 Norte 0 -- -- 61
2019-04-01 06:00:00 11.5 3 Norte 6 Norte 0 -- -- 59
2019-04-01 05:00:00 11.4 0 Calma 5 Norte 0 -- -- 58
2019-04-01 04:00:00 11.5 3 Norte 4 Noroeste 0 -- -- 59
2019-04-01 03:00:00 11.5 3 Norte 6 Norte 0 -- -- 61
2019-04-01 02:00:00 13 4 Norte 9 Nordeste 0 -- -- 56
2019-04-01 01:00:00 12.9 5 Norte 8 Nordeste 0 -- -- 61
2019-04-01 00:00:00 13 2 Este 6 Nordeste 0 -- -- 62
2019-03-31 23:00:00 13.1 4 Nordeste 8 Nordeste 0 -- -- 63
2019-03-31 22:00:00 13.4 5 Este 11 Este 0 -- -- 65
2019-03-31 21:00:00 13.7 4 Nordeste 18 Nordeste 0 -- -- 69
2019-03-31 20:00:00 13.6 9 Este 25 Nordeste 0 -- -- 76
2019-03-31 19:00:00 13.7 13 Este 31 Este 0 -- -- 78
2019-03-31 18:00:00 14.1 19 Este 32 Nordeste 0 -- -- 78
2019-03-31 17:00:00 14.4 18 Este 35 Este 0 -- -- 75
2019-03-31 16:00:00 15.4 19 Este 35 Este 0 -- -- 70
2019-03-31 15:00:00 15.3 19 Este 35 Este 0 -- -- 67
2019-03-31 14:00:00 15.8 18 Este 36 Este 0 -- -- 64
2019-03-31 13:00:00 15.4 22 Este 32 Sudeste 0 -- -- 70
2019-03-31 12:00:00 15 15 Este 32 Este 0 -- -- 67
2019-03-31 11:00:00 15.3 16 Este 28 Este 0 -- -- 67
2019-03-31 10:00:00 13 11 Este 23 Este 0 -- -- 78
2019-03-31 09:00:00 12.6 7 Nordeste 19 Nordeste 0 -- -- 78
2019-03-31 08:00:00 12.4 7 Nordeste 17 Nordeste 0 -- -- 79
2019-03-31 07:00:00 12.3 6 Nordeste 15 Nordeste 0 -- -- 79
2019-03-31 06:00:00 12.1 4 Nordeste 9 Nordeste 0 -- -- 78
2019-03-31 05:00:00 11.6 4 Norte 9 Noroeste 0 -- -- 75
2019-03-31 03:00:00 10.7 7 Norte 15 Norte 0 -- -- 77
2019-03-31 01:00:00 10.8 7 Norte 13 Norte 0 -- -- 79
2019-03-31 00:00:00 11.2 6 Norte 10 Norte 0 -- -- 79
2019-03-30 23:00:00 11.7 5 Noroeste 8 Noroeste 0 -- -- 78
2019-03-30 22:00:00 11.9 3 Norte 9 Este 0 -- -- 77
2019-03-30 21:00:00 12.1 5 Este 13 Este 0 -- -- 76
2019-03-30 20:00:00 12.2 6 Este 17 Este 0 -- -- 73
2019-03-30 19:00:00 12.8 7 Este 22 Este 0 -- -- 73
2019-03-30 18:00:00 13.4 11 Este 21 Este 0 -- -- 72
2019-03-30 17:00:00 14.3 13 Este 24 Sudeste 0 -- -- 67
2019-03-30 16:00:00 15 12 Sudeste 23 Este 0 -- -- 67
2019-03-30 15:00:00 15.5 9 Sudeste 21 Sudeste 0 -- -- 60
2019-03-30 14:00:00 15 13 Este 22 Sudeste 0 -- -- 64
2019-03-30 13:00:00 15.2 11 Sudeste 23 Sudeste 0 -- -- 65
2019-03-30 12:00:00 15.1 12 Este 20 Sudeste 0 -- -- 66
2019-03-30 11:00:00 15.4 10 Este 22 Este 0 -- -- 62
2019-03-30 10:00:00 15.5 9 Este 15 Este 0 -- -- 58
2019-03-30 09:00:00 13.2 3 Nordeste 12 Norte 0 -- -- 63
2019-03-30 08:00:00 10.6 7 Norte 13 Norte 0 -- -- 71
2019-03-30 07:00:00 9.9 9 Norte 13 Norte 0 -- -- 75
2019-03-30 06:00:00 9.4 6 Norte 10 Noroeste 0 -- -- 77
2019-03-30 05:00:00 9 4 Norte 7 Noroeste 0 -- -- 80
2019-03-30 04:00:00 9 4 Norte 8 Norte 0 -- -- 81
2019-03-30 03:00:00 9.4 4 Norte 6 Noroeste 0 -- -- 80
2019-03-30 02:00:00 9.7 3 Norte 7 Norte 0 -- -- 79
2019-03-30 01:00:00 10.2 3 Norte 8 Norte 0 -- -- 78
2019-03-30 00:00:00 10.2 4 Norte 7 Noroeste 0 -- -- 77
2019-03-29 23:00:00 10.6 3 Norte 7 Norte 0 -- -- 72
2019-03-29 22:00:00 11 3 Norte 8 Norte 0 -- -- 68
2019-03-29 21:00:00 11.5 3 Norte 6 Noroeste 0 -- -- 66
2019-03-29 20:00:00 12.2 2 Nordeste 15 Este 0 -- -- 64
2019-03-29 19:00:00 13.2 7 Este 21 Este 0 -- -- 63
2019-03-29 18:00:00 14.9 10 Este 23 Este 0 -- -- 61
2019-03-29 17:00:00 15 13 Este 23 Sudeste 0 -- -- 61
2019-03-29 16:00:00 15 12 Este 21 Este 0 -- -- 60
2019-03-29 15:00:00 15.7 8 Sudeste 20 Sudeste 0 -- -- 57
2019-03-29 14:00:00 16.6 7 Sudeste 23 Este 0 -- -- 50
2019-03-29 13:00:00 15.8 15 Este 26 Este 0 -- -- 45
2019-03-29 12:00:00 15.9 12 Este 21 Este 0 -- -- 47
2019-03-29 11:00:00 15.2 13 Este 20 Este 0 -- -- 68
2019-03-29 10:00:00 14.7 14 Este 21 Este 0 -- -- 68
2019-03-29 09:00:00 15.2 9 Este 17 Este 0 -- -- 61
2019-03-29 08:00:00 15.3 4 Norte 9 Norte 0 -- -- 51
2019-03-29 07:00:00 10.4 4 Norte 12 Norte 0 -- -- 63
2019-03-29 06:00:00 9.2 3 Norte 9 Oeste 0 -- -- 59
2019-03-29 05:00:00 9.2 3 Norte 5 Noroeste 0 -- -- 62
2019-03-29 04:00:00 9.5 0 Calma 8 Nordeste 0 -- -- 57
2019-03-29 03:00:00 9.9 2 Norte 10 Este 0 -- -- 54
2019-03-29 02:00:00 10.9 5 Este 9 Este 0 -- -- 55
2019-03-29 01:00:00 11.5 4 Oeste 17 Oeste 0 -- -- 59
2019-03-29 00:00:00 11.5 5 Noroeste 9 Norte 0 -- -- 66
2019-03-28 23:00:00 10.5 4 Noroeste 8 Noroeste 0 -- -- 61
2019-03-28 22:00:00 10.7 3 Norte 6 Noroeste 0 -- -- 59
2019-03-28 21:00:00 11.3 4 Noroeste 6 Noroeste 0 -- -- 72
2019-03-28 20:00:00 11.8 3 Noroeste 5 Oeste 0 -- -- 69
2019-03-28 19:00:00 12.8 2 Sudeste 10 Este 0 -- -- 69
2019-03-28 18:00:00 14.9 3 Sudeste 16 Este 0 -- -- 65
2019-03-28 17:00:00 14.9 8 Sudeste 16 Este 0 -- -- 65
2019-03-28 16:00:00 15.3 6 Sudeste 21 Sudeste 0 -- -- 66
2019-03-28 15:00:00 15.8 7 Sudeste 21 Este 0 -- -- 57
2019-03-28 14:00:00 15.9 8 Sudeste 17 Este 0 -- -- 55
2019-03-28 13:00:00 17 8 Sudeste 17 Sur 0 -- -- 46
2019-03-28 12:00:00 17.3 6 Sudeste 17 Sudeste 0 -- -- 42
2019-03-28 11:00:00 17 8 Este 20 Sudeste 0 -- -- 40
2019-03-28 10:00:00 16.4 11 Este 17 Este 0 -- -- 37
2019-03-28 09:00:00 16.6 9 Este 18 Este 0 -- -- 37
2019-03-28 08:00:00 15.4 6 Norte 13 Norte 0 -- -- 38
2019-03-28 07:00:00 11.6 6 Norte 12 Norte 0 -- -- 42
2019-03-28 06:00:00 11.5 5 Norte 12 Norte 0 -- -- 40
2019-03-28 05:00:00 12 7 Norte 14 Norte 0 -- -- 40
2019-03-28 04:00:00 12.5 9 Norte 22 Norte 0 -- -- 41
2019-03-28 03:00:00 12.8 10 Norte 19 Norte 0 -- -- 42
2019-03-28 02:00:00 9.9 5 Norte 15 Norte 0 -- -- 63
2019-03-28 01:00:00 8.9 0 Calma 4 Noroeste 0 -- -- 71
2019-03-28 00:00:00 9.6 0 Calma 7 Noroeste 0 -- -- 69
2019-03-27 23:00:00 10.1 0 Calma 6 Oeste 0 -- -- 67
2019-03-27 22:00:00 10.5 3 Oeste 13 Oeste 0 -- -- 64
2019-03-27 21:00:00 11.9 10 Oeste 15 Oeste 0 -- -- 59
2019-03-27 20:00:00 11.4 4 Oeste 8 Noroeste 0 -- -- 57
2019-03-27 19:00:00 12.8 3 Sudoeste 8 Este 0 -- -- 50
2019-03-27 18:00:00 15.2 4 Sudeste 12 Sudeste 0 -- -- 45
2019-03-27 17:00:00 15 5 Sudeste 19 Sudeste 0 -- -- 49
2019-03-27 16:00:00 15 8 Sudeste 19 Este 0 -- -- 51
2019-03-27 15:00:00 16.1 7 Sur 17 Sur 0 -- -- 45
2019-03-27 14:00:00 16.6 8 Sur 18 Sudeste 0 -- -- 46
2019-03-27 13:00:00 16.3 9 Sudeste 20 Este 0 -- -- 48
2019-03-27 12:00:00 18.2 10 Sur 19 Sur 0 -- -- 43
2019-03-27 11:00:00 18.4 8 Sudeste 19 Este 0 -- -- 34
2019-03-27 10:00:00 18.4 9 Oeste 19 Sudoeste 0 -- -- 31
2019-03-27 09:00:00 16.3 3 Este 14 Este 0 -- -- 34
2019-03-27 08:00:00 12.5 -- -- -- -- 0 -- -- 40
2019-03-27 07:00:00 8.7 10 Nordeste 18 Nordeste 0 -- -- 52
2019-03-27 06:00:00 7.8 5 Norte 9 Norte 0 -- -- 48
2019-03-27 05:00:00 8.8 3 Norte 11 Norte 0 -- -- 43
2019-03-27 04:00:00 8.3 4 Norte 8 Noroeste 0 -- -- 59
2019-03-27 03:00:00 8.4 4 Noroeste 7 Noroeste 0 -- -- 59
2019-03-27 02:00:00 9 4 Noroeste 8 Noroeste 0 -- -- 60
2019-03-27 01:00:00 9.2 3 Norte 9 Nordeste 0 -- -- 61
2019-03-27 00:00:00 11.1 4 Nordeste 7 Nordeste 0 -- -- 53